Index of /20260508/WXO-DD/model_rdps/10km/18/005
Name Last modified Size Description
Parent Directory -
20260508T18Z_MSC_RDPS_AbsoluteVorticity_IsbL-0250_RLatLon0.09_PT005H.grib2 2026-05-08 20:40 597K
20260508T18Z_MSC_RDPS_AbsoluteVorticity_IsbL-0500_RLatLon0.09_PT005H.grib2 2026-05-08 20:40 559K
20260508T18Z_MSC_RDPS_AbsoluteVorticity_IsbL-0700_RLatLon0.09_PT005H.grib2 2026-05-08 20:40 629K
20260508T18Z_MSC_RDPS_AbsoluteVorticity_IsbL-0850_RLatLon0.09_PT005H.grib2 2026-05-08 20:40 931K
20260508T18Z_MSC_RDPS_AirTemp_AGL-120m_RLatLon0.09_PT005H.grib2 2026-05-08 20:40 373K
20260508T18Z_MSC_RDPS_AirTemp_AGL-2m_RLatLon0.09_PT005H.grib2 2026-05-08 20:40 624K
20260508T18Z_MSC_RDPS_AirTemp_AGL-40m_RLatLon0.09_PT005H.grib2 2026-05-08 20:40 399K
20260508T18Z_MSC_RDPS_AirTemp_AGL-80m_RLatLon0.09_PT005H.grib2 2026-05-08 20:40 377K
20260508T18Z_MSC_RDPS_AirTemp_IsbL-0001_RLatLon0.09_PT005H.grib2 2026-05-08 20:40 302K
20260508T18Z_MSC_RDPS_AirTemp_IsbL-0005_RLatLon0.09_PT005H.grib2 2026-05-08 20:40 361K
20260508T18Z_MSC_RDPS_AirTemp_IsbL-0010_RLatLon0.09_PT005H.grib2 2026-05-08 20:40 285K
20260508T18Z_MSC_RDPS_AirTemp_IsbL-0020_RLatLon0.09_PT005H.grib2 2026-05-08 20:40 300K
20260508T18Z_MSC_RDPS_AirTemp_IsbL-0030_RLatLon0.09_PT005H.grib2 2026-05-08 20:40 321K
20260508T18Z_MSC_RDPS_AirTemp_IsbL-0050_RLatLon0.09_PT005H.grib2 2026-05-08 20:40 298K
20260508T18Z_MSC_RDPS_AirTemp_IsbL-0100_RLatLon0.09_PT005H.grib2 2026-05-08 20:40 377K
20260508T18Z_MSC_RDPS_AirTemp_IsbL-0150_RLatLon0.09_PT005H.grib2 2026-05-08 20:40 405K
20260508T18Z_MSC_RDPS_AirTemp_IsbL-0175_RLatLon0.09_PT005H.grib2 2026-05-08 20:40 400K
20260508T18Z_MSC_RDPS_AirTemp_IsbL-0200_RLatLon0.09_PT005H.grib2 2026-05-08 20:40 406K
20260508T18Z_MSC_RDPS_AirTemp_IsbL-0225_RLatLon0.09_PT005H.grib2 2026-05-08 20:40 407K
20260508T18Z_MSC_RDPS_AirTemp_IsbL-0250_RLatLon0.09_PT005H.grib2 2026-05-08 20:40 415K
20260508T18Z_MSC_RDPS_AirTemp_IsbL-0275_RLatLon0.09_PT005H.grib2 2026-05-08 20:40 397K
20260508T18Z_MSC_RDPS_AirTemp_IsbL-0300_RLatLon0.09_PT005H.grib2 2026-05-08 20:40 427K
20260508T18Z_MSC_RDPS_AirTemp_IsbL-0350_RLatLon0.09_PT005H.grib2 2026-05-08 20:40 417K
20260508T18Z_MSC_RDPS_AirTemp_IsbL-0400_RLatLon0.09_PT005H.grib2 2026-05-08 20:40 421K
20260508T18Z_MSC_RDPS_AirTemp_IsbL-0450_RLatLon0.09_PT005H.grib2 2026-05-08 20:40 431K
20260508T18Z_MSC_RDPS_AirTemp_IsbL-0500_RLatLon0.09_PT005H.grib2 2026-05-08 20:40 446K
20260508T18Z_MSC_RDPS_AirTemp_IsbL-0550_RLatLon0.09_PT005H.grib2 2026-05-08 20:40 468K
20260508T18Z_MSC_RDPS_AirTemp_IsbL-0600_RLatLon0.09_PT005H.grib2 2026-05-08 20:40 452K
20260508T18Z_MSC_RDPS_AirTemp_IsbL-0650_RLatLon0.09_PT005H.grib2 2026-05-08 20:40 466K
20260508T18Z_MSC_RDPS_AirTemp_IsbL-0700_RLatLon0.09_PT005H.grib2 2026-05-08 20:40 494K
20260508T18Z_MSC_RDPS_AirTemp_IsbL-0750_RLatLon0.09_PT005H.grib2 2026-05-08 20:40 531K
20260508T18Z_MSC_RDPS_AirTemp_IsbL-0800_RLatLon0.09_PT005H.grib2 2026-05-08 20:40 458K
20260508T18Z_MSC_RDPS_AirTemp_IsbL-0850_RLatLon0.09_PT005H.grib2 2026-05-08 20:40 496K
20260508T18Z_MSC_RDPS_AirTemp_IsbL-0875_RLatLon0.09_PT005H.grib2 2026-05-08 20:40 511K
20260508T18Z_MSC_RDPS_AirTemp_IsbL-0900_RLatLon0.09_PT005H.grib2 2026-05-08 20:40 518K
20260508T18Z_MSC_RDPS_AirTemp_IsbL-0925_RLatLon0.09_PT005H.grib2 2026-05-08 20:40 520K
20260508T18Z_MSC_RDPS_AirTemp_IsbL-0950_RLatLon0.09_PT005H.grib2 2026-05-08 20:40 521K
20260508T18Z_MSC_RDPS_AirTemp_IsbL-0970_RLatLon0.09_PT005H.grib2 2026-05-08 20:40 515K
20260508T18Z_MSC_RDPS_AirTemp_IsbL-0985_RLatLon0.09_PT005H.grib2 2026-05-08 20:40 516K
20260508T18Z_MSC_RDPS_AirTemp_IsbL-1000_RLatLon0.09_PT005H.grib2 2026-05-08 20:40 495K
20260508T18Z_MSC_RDPS_AirTemp_IsbL-1015_RLatLon0.09_PT005H.grib2 2026-05-08 20:40 505K
20260508T18Z_MSC_RDPS_Albedo_Sfc_RLatLon0.09_PT005H.grib2 2026-05-08 20:40 152K
20260508T18Z_MSC_RDPS_CAPE_Sfc_RLatLon0.09_PT005H.grib2 2026-05-08 20:40 1.7M
20260508T18Z_MSC_RDPS_CIN_Sfc_RLatLon0.09_PT005H.grib2 2026-05-08 20:40 1.3M
20260508T18Z_MSC_RDPS_CloudWater_EAtm_RLatLon0.09_PT005H.grib2 2026-05-08 20:40 227K
20260508T18Z_MSC_RDPS_ConvectivePrecip-Accum_Sfc_RLatLon0.09_PT005H.grib2 2026-05-08 20:40 531K
20260508T18Z_MSC_RDPS_DewPointDepression_AGL-2m_RLatLon0.09_PT005H.grib2 2026-05-08 20:40 417K
20260508T18Z_MSC_RDPS_DewPointDepression_IsbL-0001_RLatLon0.09_PT005H.grib2 2026-05-08 20:40 193
20260508T18Z_MSC_RDPS_DewPointDepression_IsbL-0005_RLatLon0.09_PT005H.grib2 2026-05-08 20:40 193
20260508T18Z_MSC_RDPS_DewPointDepression_IsbL-0010_RLatLon0.09_PT005H.grib2 2026-05-08 20:40 193
20260508T18Z_MSC_RDPS_DewPointDepression_IsbL-0020_RLatLon0.09_PT005H.grib2 2026-05-08 20:40 193
20260508T18Z_MSC_RDPS_DewPointDepression_IsbL-0030_RLatLon0.09_PT005H.grib2 2026-05-08 20:40 193
20260508T18Z_MSC_RDPS_DewPointDepression_IsbL-0050_RLatLon0.09_PT005H.grib2 2026-05-08 20:40 82K
20260508T18Z_MSC_RDPS_DewPointDepression_IsbL-0100_RLatLon0.09_PT005H.grib2 2026-05-08 20:40 109K
20260508T18Z_MSC_RDPS_DewPointDepression_IsbL-0150_RLatLon0.09_PT005H.grib2 2026-05-08 20:40 143K
20260508T18Z_MSC_RDPS_DewPointDepression_IsbL-0175_RLatLon0.09_PT005H.grib2 2026-05-08 20:40 175K
20260508T18Z_MSC_RDPS_DewPointDepression_IsbL-0200_RLatLon0.09_PT005H.grib2 2026-05-08 20:40 225K
20260508T18Z_MSC_RDPS_DewPointDepression_IsbL-0225_RLatLon0.09_PT005H.grib2 2026-05-08 20:40 262K
20260508T18Z_MSC_RDPS_DewPointDepression_IsbL-0250_RLatLon0.09_PT005H.grib2 2026-05-08 20:40 302K
20260508T18Z_MSC_RDPS_DewPointDepression_IsbL-0275_RLatLon0.09_PT005H.grib2 2026-05-08 20:40 310K
20260508T18Z_MSC_RDPS_DewPointDepression_IsbL-0300_RLatLon0.09_PT005H.grib2 2026-05-08 20:40 320K
20260508T18Z_MSC_RDPS_DewPointDepression_IsbL-0350_RLatLon0.09_PT005H.grib2 2026-05-08 20:40 323K
20260508T18Z_MSC_RDPS_DewPointDepression_IsbL-0400_RLatLon0.09_PT005H.grib2 2026-05-08 20:40 327K
20260508T18Z_MSC_RDPS_DewPointDepression_IsbL-0450_RLatLon0.09_PT005H.grib2 2026-05-08 20:40 330K
20260508T18Z_MSC_RDPS_DewPointDepression_IsbL-0500_RLatLon0.09_PT005H.grib2 2026-05-08 20:40 338K
20260508T18Z_MSC_RDPS_DewPointDepression_IsbL-0550_RLatLon0.09_PT005H.grib2 2026-05-08 20:40 354K
20260508T18Z_MSC_RDPS_DewPointDepression_IsbL-0600_RLatLon0.09_PT005H.grib2 2026-05-08 20:40 374K
20260508T18Z_MSC_RDPS_DewPointDepression_IsbL-0650_RLatLon0.09_PT005H.grib2 2026-05-08 20:40 383K
20260508T18Z_MSC_RDPS_DewPointDepression_IsbL-0700_RLatLon0.09_PT005H.grib2 2026-05-08 20:40 397K
20260508T18Z_MSC_RDPS_DewPointDepression_IsbL-0750_RLatLon0.09_PT005H.grib2 2026-05-08 20:40 419K
20260508T18Z_MSC_RDPS_DewPointDepression_IsbL-0800_RLatLon0.09_PT005H.grib2 2026-05-08 20:40 456K
20260508T18Z_MSC_RDPS_DewPointDepression_IsbL-0850_RLatLon0.09_PT005H.grib2 2026-05-08 20:40 473K
20260508T18Z_MSC_RDPS_DewPointDepression_IsbL-0875_RLatLon0.09_PT005H.grib2 2026-05-08 20:40 470K
20260508T18Z_MSC_RDPS_DewPointDepression_IsbL-0900_RLatLon0.09_PT005H.grib2 2026-05-08 20:40 461K
20260508T18Z_MSC_RDPS_DewPointDepression_IsbL-0925_RLatLon0.09_PT005H.grib2 2026-05-08 20:40 449K
20260508T18Z_MSC_RDPS_DewPointDepression_IsbL-0950_RLatLon0.09_PT005H.grib2 2026-05-08 20:40 439K
20260508T18Z_MSC_RDPS_DewPointDepression_IsbL-0970_RLatLon0.09_PT005H.grib2 2026-05-08 20:40 432K
20260508T18Z_MSC_RDPS_DewPointDepression_IsbL-0985_RLatLon0.09_PT005H.grib2 2026-05-08 20:40 426K
20260508T18Z_MSC_RDPS_DewPointDepression_IsbL-1000_RLatLon0.09_PT005H.grib2 2026-05-08 20:40 423K
20260508T18Z_MSC_RDPS_DewPointDepression_IsbL-1015_RLatLon0.09_PT005H.grib2 2026-05-08 20:40 413K
20260508T18Z_MSC_RDPS_DewPoint_AGL-2m_RLatLon0.09_PT005H.grib2 2026-05-08 20:40 397K
20260508T18Z_MSC_RDPS_DownwardLongwaveRadiationFlux-Accum_Sfc_RLatLon0.09_PT005H.grib2 2026-05-08 20:40 477K
20260508T18Z_MSC_RDPS_DownwardShortwaveRadiationFlux-Accum_NTAtm_RLatLon0.09_PT005H.grib2 2026-05-08 20:40 100K
20260508T18Z_MSC_RDPS_DownwardShortwaveRadiationFlux-Accum_Sfc_RLatLon0.09_PT005H.grib2 2026-05-08 20:40 595K
20260508T18Z_MSC_RDPS_FreezingRain-Accum1h_Sfc_RLatLon0.09_PT005H.grib2 2026-05-08 20:40 22K
20260508T18Z_MSC_RDPS_FreezingRain-Accum_Sfc_RLatLon0.09_PT005H.grib2 2026-05-08 20:40 42K
20260508T18Z_MSC_RDPS_GeopotentialHeight_IsbL-0001_RLatLon0.09_PT005H.grib2 2026-05-08 20:40 314K
20260508T18Z_MSC_RDPS_GeopotentialHeight_IsbL-0005_RLatLon0.09_PT005H.grib2 2026-05-08 20:40 303K
20260508T18Z_MSC_RDPS_GeopotentialHeight_IsbL-0010_RLatLon0.09_PT005H.grib2 2026-05-08 20:40 304K
20260508T18Z_MSC_RDPS_GeopotentialHeight_IsbL-0020_RLatLon0.09_PT005H.grib2 2026-05-08 20:40 303K
20260508T18Z_MSC_RDPS_GeopotentialHeight_IsbL-0030_RLatLon0.09_PT005H.grib2 2026-05-08 20:40 304K
20260508T18Z_MSC_RDPS_GeopotentialHeight_IsbL-0050_RLatLon0.09_PT005H.grib2 2026-05-08 20:40 306K
20260508T18Z_MSC_RDPS_GeopotentialHeight_IsbL-0100_RLatLon0.09_PT005H.grib2 2026-05-08 20:40 285K
20260508T18Z_MSC_RDPS_GeopotentialHeight_IsbL-0150_RLatLon0.09_PT005H.grib2 2026-05-08 20:40 227K
20260508T18Z_MSC_RDPS_GeopotentialHeight_IsbL-0175_RLatLon0.09_PT005H.grib2 2026-05-08 20:40 231K
20260508T18Z_MSC_RDPS_GeopotentialHeight_IsbL-0200_RLatLon0.09_PT005H.grib2 2026-05-08 20:40 265K
20260508T18Z_MSC_RDPS_GeopotentialHeight_IsbL-0225_RLatLon0.09_PT005H.grib2 2026-05-08 20:40 266K
20260508T18Z_MSC_RDPS_GeopotentialHeight_IsbL-0250_RLatLon0.09_PT005H.grib2 2026-05-08 20:40 268K
20260508T18Z_MSC_RDPS_GeopotentialHeight_IsbL-0275_RLatLon0.09_PT005H.grib2 2026-05-08 20:40 266K
20260508T18Z_MSC_RDPS_GeopotentialHeight_IsbL-0300_RLatLon0.09_PT005H.grib2 2026-05-08 20:40 236K
20260508T18Z_MSC_RDPS_GeopotentialHeight_IsbL-0350_RLatLon0.09_PT005H.grib2 2026-05-08 20:40 232K
20260508T18Z_MSC_RDPS_GeopotentialHeight_IsbL-0400_RLatLon0.09_PT005H.grib2 2026-05-08 20:40 228K
20260508T18Z_MSC_RDPS_GeopotentialHeight_IsbL-0450_RLatLon0.09_PT005H.grib2 2026-05-08 20:40 296K
20260508T18Z_MSC_RDPS_GeopotentialHeight_IsbL-0500_RLatLon0.09_PT005H.grib2 2026-05-08 20:40 290K
20260508T18Z_MSC_RDPS_GeopotentialHeight_IsbL-0550_RLatLon0.09_PT005H.grib2 2026-05-08 20:40 288K
20260508T18Z_MSC_RDPS_GeopotentialHeight_IsbL-0600_RLatLon0.09_PT005H.grib2 2026-05-08 20:40 286K
20260508T18Z_MSC_RDPS_GeopotentialHeight_IsbL-0650_RLatLon0.09_PT005H.grib2 2026-05-08 20:40 257K
20260508T18Z_MSC_RDPS_GeopotentialHeight_IsbL-0700_RLatLon0.09_PT005H.grib2 2026-05-08 20:40 257K
20260508T18Z_MSC_RDPS_GeopotentialHeight_IsbL-0750_RLatLon0.09_PT005H.grib2 2026-05-08 20:40 259K
20260508T18Z_MSC_RDPS_GeopotentialHeight_IsbL-0800_RLatLon0.09_PT005H.grib2 2026-05-08 20:40 347K
20260508T18Z_MSC_RDPS_GeopotentialHeight_IsbL-0850_RLatLon0.09_PT005H.grib2 2026-05-08 20:40 353K
20260508T18Z_MSC_RDPS_GeopotentialHeight_IsbL-0875_RLatLon0.09_PT005H.grib2 2026-05-08 20:40 354K
20260508T18Z_MSC_RDPS_GeopotentialHeight_IsbL-0900_RLatLon0.09_PT005H.grib2 2026-05-08 20:40 359K
20260508T18Z_MSC_RDPS_GeopotentialHeight_IsbL-0925_RLatLon0.09_PT005H.grib2 2026-05-08 20:40 364K
20260508T18Z_MSC_RDPS_GeopotentialHeight_IsbL-0950_RLatLon0.09_PT005H.grib2 2026-05-08 20:40 366K
20260508T18Z_MSC_RDPS_GeopotentialHeight_IsbL-0970_RLatLon0.09_PT005H.grib2 2026-05-08 20:40 373K
20260508T18Z_MSC_RDPS_GeopotentialHeight_IsbL-0985_RLatLon0.09_PT005H.grib2 2026-05-08 20:40 382K
20260508T18Z_MSC_RDPS_GeopotentialHeight_IsbL-1000_RLatLon0.09_PT005H.grib2 2026-05-08 20:40 393K
20260508T18Z_MSC_RDPS_GeopotentialHeight_IsbL-1015_RLatLon0.09_PT005H.grib2 2026-05-08 20:40 407K
20260508T18Z_MSC_RDPS_HighLowPressure_MSL_RLatLon0.09_PT005H.json 2026-05-08 20:32 20K
20260508T18Z_MSC_RDPS_Humidex_Sfc_RLatLon0.09_PT005H.grib2 2026-05-08 20:40 2.4M
20260508T18Z_MSC_RDPS_IcePellets-Accum1h_Sfc_RLatLon0.09_PT005H.grib2 2026-05-08 20:40 8.4K
20260508T18Z_MSC_RDPS_IcePellets-Accum_Sfc_RLatLon0.09_PT005H.grib2 2026-05-08 20:40 12K
20260508T18Z_MSC_RDPS_KIndex_Sfc_RLatLon0.09_PT005H.grib2 2026-05-08 20:40 2.4M
20260508T18Z_MSC_RDPS_LatentHeatNetFlux_Sfc_RLatLon0.09_PT005H.grib2 2026-05-08 20:40 293K
20260508T18Z_MSC_RDPS_LiftedIndex-MU-VT_IsbL-0500_RLatLon0.09_PT005H.grib2 2026-05-08 20:40 2.4M
20260508T18Z_MSC_RDPS_NetLongwaveRadiationFlux-Accum_Sfc_RLatLon0.09_PT005H.grib2 2026-05-08 20:40 503K
20260508T18Z_MSC_RDPS_NetShortwaveRadiationFlux-Accum_Sfc_RLatLon0.09_PT005H.grib2 2026-05-08 20:40 584K
20260508T18Z_MSC_RDPS_PlanetaryBoundaryLayerHeight_Sfc_RLatLon0.09_PT005H.grib2 2026-05-08 20:40 1.0M
20260508T18Z_MSC_RDPS_Precip-Accum1h_Sfc_RLatLon0.09_PT005H.grib2 2026-05-08 20:40 1.2M
20260508T18Z_MSC_RDPS_Precip-Accum_Sfc_RLatLon0.09_PT005H.grib2 2026-05-08 20:40 1.4M
20260508T18Z_MSC_RDPS_PrecipRate_Sfc_RLatLon0.09_PT005H.grib2 2026-05-08 20:40 170K
20260508T18Z_MSC_RDPS_PrecipType-Instant_Sfc_RLatLon0.09_PT005H.grib2 2026-05-08 20:40 590K
20260508T18Z_MSC_RDPS_Pressure-Trend3h_Sfc_RLatLon0.09_PT005H.grib2 2026-05-08 20:40 1.2M
20260508T18Z_MSC_RDPS_Pressure_MSL_RLatLon0.09_PT005H.grib2 2026-05-08 20:40 327K
20260508T18Z_MSC_RDPS_Pressure_PVU-1.5_RLatLon0.09_PT005H.grib2 2026-05-08 20:40 2.4M
20260508T18Z_MSC_RDPS_Pressure_PVU-1_RLatLon0.09_PT005H.grib2 2026-05-08 20:40 2.4M
20260508T18Z_MSC_RDPS_Pressure_PVU-2_RLatLon0.09_PT005H.grib2 2026-05-08 20:40 2.4M
20260508T18Z_MSC_RDPS_Pressure_Sfc_RLatLon0.09_PT005H.grib2 2026-05-08 20:40 498K
20260508T18Z_MSC_RDPS_RadiativeTemp_Sfc_RLatLon0.09_PT005H.grib2 2026-05-08 20:40 318K
20260508T18Z_MSC_RDPS_Rain-Accum1h_Sfc_RLatLon0.09_PT005H.grib2 2026-05-08 20:40 555K
20260508T18Z_MSC_RDPS_Rain-Accum_Sfc_RLatLon0.09_PT005H.grib2 2026-05-08 20:40 1.1M
20260508T18Z_MSC_RDPS_RelativeHumidity_AGL-2m_RLatLon0.09_PT005H.grib2 2026-05-08 20:40 1.0M
20260508T18Z_MSC_RDPS_RelativeHumidity_IsbL-0010_RLatLon0.09_PT005H.grib2 2026-05-08 20:40 574K
20260508T18Z_MSC_RDPS_RelativeHumidity_IsbL-0020_RLatLon0.09_PT005H.grib2 2026-05-08 20:40 645K
20260508T18Z_MSC_RDPS_RelativeHumidity_IsbL-0030_RLatLon0.09_PT005H.grib2 2026-05-08 20:40 622K
20260508T18Z_MSC_RDPS_RelativeHumidity_IsbL-0050_RLatLon0.09_PT005H.grib2 2026-05-08 20:40 357K
20260508T18Z_MSC_RDPS_RelativeHumidity_IsbL-0100_RLatLon0.09_PT005H.grib2 2026-05-08 20:40 272K
20260508T18Z_MSC_RDPS_RelativeHumidity_IsbL-0150_RLatLon0.09_PT005H.grib2 2026-05-08 20:40 412K
20260508T18Z_MSC_RDPS_RelativeHumidity_IsbL-0175_RLatLon0.09_PT005H.grib2 2026-05-08 20:40 474K
20260508T18Z_MSC_RDPS_RelativeHumidity_IsbL-0200_RLatLon0.09_PT005H.grib2 2026-05-08 20:40 551K
20260508T18Z_MSC_RDPS_RelativeHumidity_IsbL-0225_RLatLon0.09_PT005H.grib2 2026-05-08 20:40 616K
20260508T18Z_MSC_RDPS_RelativeHumidity_IsbL-0250_RLatLon0.09_PT005H.grib2 2026-05-08 20:40 679K
20260508T18Z_MSC_RDPS_RelativeHumidity_IsbL-0275_RLatLon0.09_PT005H.grib2 2026-05-08 20:40 706K
20260508T18Z_MSC_RDPS_RelativeHumidity_IsbL-0300_RLatLon0.09_PT005H.grib2 2026-05-08 20:40 741K
20260508T18Z_MSC_RDPS_RelativeHumidity_IsbL-0350_RLatLon0.09_PT005H.grib2 2026-05-08 20:40 755K
20260508T18Z_MSC_RDPS_RelativeHumidity_IsbL-0400_RLatLon0.09_PT005H.grib2 2026-05-08 20:40 768K
20260508T18Z_MSC_RDPS_RelativeHumidity_IsbL-0450_RLatLon0.09_PT005H.grib2 2026-05-08 20:40 775K
20260508T18Z_MSC_RDPS_RelativeHumidity_IsbL-0500_RLatLon0.09_PT005H.grib2 2026-05-08 20:40 796K
20260508T18Z_MSC_RDPS_RelativeHumidity_IsbL-0550_RLatLon0.09_PT005H.grib2 2026-05-08 20:40 818K
20260508T18Z_MSC_RDPS_RelativeHumidity_IsbL-0600_RLatLon0.09_PT005H.grib2 2026-05-08 20:40 847K
20260508T18Z_MSC_RDPS_RelativeHumidity_IsbL-0650_RLatLon0.09_PT005H.grib2 2026-05-08 20:40 865K
20260508T18Z_MSC_RDPS_RelativeHumidity_IsbL-0700_RLatLon0.09_PT005H.grib2 2026-05-08 20:40 896K
20260508T18Z_MSC_RDPS_RelativeHumidity_IsbL-0750_RLatLon0.09_PT005H.grib2 2026-05-08 20:40 943K
20260508T18Z_MSC_RDPS_RelativeHumidity_IsbL-0800_RLatLon0.09_PT005H.grib2 2026-05-08 20:40 1.0M
20260508T18Z_MSC_RDPS_RelativeHumidity_IsbL-0850_RLatLon0.09_PT005H.grib2 2026-05-08 20:40 1.0M
20260508T18Z_MSC_RDPS_RelativeHumidity_IsbL-0875_RLatLon0.09_PT005H.grib2 2026-05-08 20:40 1.1M
20260508T18Z_MSC_RDPS_RelativeHumidity_IsbL-0900_RLatLon0.09_PT005H.grib2 2026-05-08 20:40 1.1M
20260508T18Z_MSC_RDPS_RelativeHumidity_IsbL-0925_RLatLon0.09_PT005H.grib2 2026-05-08 20:40 1.1M
20260508T18Z_MSC_RDPS_RelativeHumidity_IsbL-0950_RLatLon0.09_PT005H.grib2 2026-05-08 20:40 1.1M
20260508T18Z_MSC_RDPS_RelativeHumidity_IsbL-0970_RLatLon0.09_PT005H.grib2 2026-05-08 20:40 1.0M
20260508T18Z_MSC_RDPS_RelativeHumidity_IsbL-0985_RLatLon0.09_PT005H.grib2 2026-05-08 20:40 1.0M
20260508T18Z_MSC_RDPS_RelativeHumidity_IsbL-1000_RLatLon0.09_PT005H.grib2 2026-05-08 20:40 1.0M
20260508T18Z_MSC_RDPS_RelativeHumidity_IsbL-1015_RLatLon0.09_PT005H.grib2 2026-05-08 20:40 1.0M
20260508T18Z_MSC_RDPS_Runoff-Accum_Sfc_RLatLon0.09_PT005H.grib2 2026-05-08 20:40 35K
20260508T18Z_MSC_RDPS_SWEATIndex_Sfc_RLatLon0.09_PT005H.grib2 2026-05-08 20:40 2.4M
20260508T18Z_MSC_RDPS_SeeingIndex_EAtm_RLatLon0.09_PT005H.grib2 2026-05-08 20:40 1.0M
20260508T18Z_MSC_RDPS_SensibleHeatNetFlux_Sfc_RLatLon0.09_PT005H.grib2 2026-05-08 20:40 252K
20260508T18Z_MSC_RDPS_ShowalterIndex_IsbL-0500_RLatLon0.09_PT005H.grib2 2026-05-08 20:40 2.6M
20260508T18Z_MSC_RDPS_SkyTransparencyIndex_EAtm_RLatLon0.09_PT005H.grib2 2026-05-08 20:40 696K
20260508T18Z_MSC_RDPS_Snow-Accum1h_Sfc_RLatLon0.09_PT005H.grib2 2026-05-08 20:40 463K
20260508T18Z_MSC_RDPS_Snow-Accum_Sfc_RLatLon0.09_PT005H.grib2 2026-05-08 20:40 554K
20260508T18Z_MSC_RDPS_SnowDensity_Sfc_RLatLon0.09_PT005H.grib2 2026-05-08 20:40 162K
20260508T18Z_MSC_RDPS_SnowDepth_Sfc_RLatLon0.09_PT005H.grib2 2026-05-08 20:40 617K
20260508T18Z_MSC_RDPS_SoilTemp_DBS-0to10cm_RLatLon0.09_PT005H.grib2 2026-05-08 20:40 207K
20260508T18Z_MSC_RDPS_SoilTemp_Sfc_RLatLon0.09_PT005H.grib2 2026-05-08 20:40 286K
20260508T18Z_MSC_RDPS_SoilVolumetricIceContent_Sfc_RLatLon0.09_PT005H.grib2 2026-05-08 20:40 146K
20260508T18Z_MSC_RDPS_SoilVolumetricWaterContent_DBS-0to10cm_RLatLon0.09_PT005H.grib2 2026-05-08 20:40 286K
20260508T18Z_MSC_RDPS_SoilVolumetricWaterContent_DBS-0to1cm_RLatLon0.09_PT005H.grib2 2026-05-08 20:40 335K
20260508T18Z_MSC_RDPS_SpecificHumidity_AGL-120m_RLatLon0.09_PT005H.grib2 2026-05-08 20:40 496K
20260508T18Z_MSC_RDPS_SpecificHumidity_AGL-2m_RLatLon0.09_PT005H.grib2 2026-05-08 20:40 670K
20260508T18Z_MSC_RDPS_SpecificHumidity_AGL-40m_RLatLon0.09_PT005H.grib2 2026-05-08 20:40 503K
20260508T18Z_MSC_RDPS_SpecificHumidity_AGL-80m_RLatLon0.09_PT005H.grib2 2026-05-08 20:40 498K
20260508T18Z_MSC_RDPS_SpecificHumidity_IsbL-0001_RLatLon0.09_PT005H.grib2 2026-05-08 20:40 361K
20260508T18Z_MSC_RDPS_SpecificHumidity_IsbL-0005_RLatLon0.09_PT005H.grib2 2026-05-08 20:40 368K
20260508T18Z_MSC_RDPS_SpecificHumidity_IsbL-0010_RLatLon0.09_PT005H.grib2 2026-05-08 20:40 397K
20260508T18Z_MSC_RDPS_SpecificHumidity_IsbL-0020_RLatLon0.09_PT005H.grib2 2026-05-08 20:40 376K
20260508T18Z_MSC_RDPS_SpecificHumidity_IsbL-0030_RLatLon0.09_PT005H.grib2 2026-05-08 20:40 373K
20260508T18Z_MSC_RDPS_SpecificHumidity_IsbL-0050_RLatLon0.09_PT005H.grib2 2026-05-08 20:40 481K
20260508T18Z_MSC_RDPS_SpecificHumidity_IsbL-0100_RLatLon0.09_PT005H.grib2 2026-05-08 20:40 440K
20260508T18Z_MSC_RDPS_SpecificHumidity_IsbL-0150_RLatLon0.09_PT005H.grib2 2026-05-08 20:40 455K
20260508T18Z_MSC_RDPS_SpecificHumidity_IsbL-0175_RLatLon0.09_PT005H.grib2 2026-05-08 20:40 463K
20260508T18Z_MSC_RDPS_SpecificHumidity_IsbL-0200_RLatLon0.09_PT005H.grib2 2026-05-08 20:40 484K
20260508T18Z_MSC_RDPS_SpecificHumidity_IsbL-0225_RLatLon0.09_PT005H.grib2 2026-05-08 20:40 484K
20260508T18Z_MSC_RDPS_SpecificHumidity_IsbL-0250_RLatLon0.09_PT005H.grib2 2026-05-08 20:40 434K
20260508T18Z_MSC_RDPS_SpecificHumidity_IsbL-0275_RLatLon0.09_PT005H.grib2 2026-05-08 20:40 485K
20260508T18Z_MSC_RDPS_SpecificHumidity_IsbL-0300_RLatLon0.09_PT005H.grib2 2026-05-08 20:40 453K
20260508T18Z_MSC_RDPS_SpecificHumidity_IsbL-0350_RLatLon0.09_PT005H.grib2 2026-05-08 20:40 441K
20260508T18Z_MSC_RDPS_SpecificHumidity_IsbL-0400_RLatLon0.09_PT005H.grib2 2026-05-08 20:40 509K
20260508T18Z_MSC_RDPS_SpecificHumidity_IsbL-0450_RLatLon0.09_PT005H.grib2 2026-05-08 20:40 455K
20260508T18Z_MSC_RDPS_SpecificHumidity_IsbL-0500_RLatLon0.09_PT005H.grib2 2026-05-08 20:40 506K
20260508T18Z_MSC_RDPS_SpecificHumidity_IsbL-0550_RLatLon0.09_PT005H.grib2 2026-05-08 20:40 580K
20260508T18Z_MSC_RDPS_SpecificHumidity_IsbL-0600_RLatLon0.09_PT005H.grib2 2026-05-08 20:40 639K
20260508T18Z_MSC_RDPS_SpecificHumidity_IsbL-0650_RLatLon0.09_PT005H.grib2 2026-05-08 20:40 562K
20260508T18Z_MSC_RDPS_SpecificHumidity_IsbL-0700_RLatLon0.09_PT005H.grib2 2026-05-08 20:40 613K
20260508T18Z_MSC_RDPS_SpecificHumidity_IsbL-0750_RLatLon0.09_PT005H.grib2 2026-05-08 20:40 674K
20260508T18Z_MSC_RDPS_SpecificHumidity_IsbL-0800_RLatLon0.09_PT005H.grib2 2026-05-08 20:40 761K
20260508T18Z_MSC_RDPS_SpecificHumidity_IsbL-0850_RLatLon0.09_PT005H.grib2 2026-05-08 20:40 823K
20260508T18Z_MSC_RDPS_SpecificHumidity_IsbL-0875_RLatLon0.09_PT005H.grib2 2026-05-08 20:40 705K
20260508T18Z_MSC_RDPS_SpecificHumidity_IsbL-0900_RLatLon0.09_PT005H.grib2 2026-05-08 20:40 717K
20260508T18Z_MSC_RDPS_SpecificHumidity_IsbL-0925_RLatLon0.09_PT005H.grib2 2026-05-08 20:40 720K
20260508T18Z_MSC_RDPS_SpecificHumidity_IsbL-0950_RLatLon0.09_PT005H.grib2 2026-05-08 20:40 719K
20260508T18Z_MSC_RDPS_SpecificHumidity_IsbL-0970_RLatLon0.09_PT005H.grib2 2026-05-08 20:40 711K
20260508T18Z_MSC_RDPS_SpecificHumidity_IsbL-0985_RLatLon0.09_PT005H.grib2 2026-05-08 20:40 701K
20260508T18Z_MSC_RDPS_SpecificHumidity_IsbL-1000_RLatLon0.09_PT005H.grib2 2026-05-08 20:40 695K
20260508T18Z_MSC_RDPS_SpecificHumidity_IsbL-1015_RLatLon0.09_PT005H.grib2 2026-05-08 20:40 683K
20260508T18Z_MSC_RDPS_SpecificHumidity_Sfc_RLatLon0.09_PT005H.grib2 2026-05-08 20:40 344K
20260508T18Z_MSC_RDPS_StormRelativeHelicity_EtaL-10000_RLatLon0.09_PT005H.grib2 2026-05-08 20:40 1.1M
20260508T18Z_MSC_RDPS_StormSeverityIndex_EtaL-10000_RLatLon0.09_PT005H.grib2 2026-05-08 20:40 1.2M
20260508T18Z_MSC_RDPS_Thickness_IsbL-0850to0700_RLatLon0.09_PT005H.grib2 2026-05-08 20:40 177K
20260508T18Z_MSC_RDPS_Thickness_IsbL-1000to0500_RLatLon0.09_PT005H.grib2 2026-05-08 20:40 197K
20260508T18Z_MSC_RDPS_Thickness_IsbL-1000to0850_RLatLon0.09_PT005H.grib2 2026-05-08 20:40 185K
20260508T18Z_MSC_RDPS_TotalCloudCover_Sfc_RLatLon0.09_PT005H.grib2 2026-05-08 20:40 654K
20260508T18Z_MSC_RDPS_TotalTotalsIndex_Sfc_RLatLon0.09_PT005H.grib2 2026-05-08 20:40 2.4M
20260508T18Z_MSC_RDPS_UVIndex-ClearSky_Sfc_RLatLon0.09_PT005H.grib2 2026-05-08 20:40 207K
20260508T18Z_MSC_RDPS_UVIndex_Sfc_RLatLon0.09_PT005H.grib2 2026-05-08 20:40 454K
20260508T18Z_MSC_RDPS_UpwardLongwaveRadiationFlux_NTAtm_RLatLon0.09_PT005H.grib2 2026-05-08 20:40 385K
20260508T18Z_MSC_RDPS_UpwardShortwaveRadiationFlux_NTAtm_RLatLon0.09_PT005H.grib2 2026-05-08 20:40 403K
20260508T18Z_MSC_RDPS_VerticalVelocity_IsbL-0250_RLatLon0.09_PT005H.grib2 2026-05-08 20:40 574K
20260508T18Z_MSC_RDPS_VerticalVelocity_IsbL-0500_RLatLon0.09_PT005H.grib2 2026-05-08 20:40 532K
20260508T18Z_MSC_RDPS_VerticalVelocity_IsbL-0700_RLatLon0.09_PT005H.grib2 2026-05-08 20:40 605K
20260508T18Z_MSC_RDPS_VerticalVelocity_IsbL-0850_RLatLon0.09_PT005H.grib2 2026-05-08 20:40 706K
20260508T18Z_MSC_RDPS_VerticalWindShear_EtaL-6500_RLatLon0.09_PT005H.grib2 2026-05-08 20:40 1.2M
20260508T18Z_MSC_RDPS_WindChill_Sfc_RLatLon0.09_PT005H.grib2 2026-05-08 20:40 1.2M
20260508T18Z_MSC_RDPS_WindDir_AGL-10m_RLatLon0.09_PT005H.grib2 2026-05-08 20:40 947K
20260508T18Z_MSC_RDPS_WindDir_AGL-120m_RLatLon0.09_PT005H.grib2 2026-05-08 20:40 594K
20260508T18Z_MSC_RDPS_WindDir_AGL-40m_RLatLon0.09_PT005H.grib2 2026-05-08 20:40 617K
20260508T18Z_MSC_RDPS_WindDir_AGL-80m_RLatLon0.09_PT005H.grib2 2026-05-08 20:40 604K
20260508T18Z_MSC_RDPS_WindDir_IsbL-0001_RLatLon0.09_PT005H.grib2 2026-05-08 20:40 275K
20260508T18Z_MSC_RDPS_WindDir_IsbL-0005_RLatLon0.09_PT005H.grib2 2026-05-08 20:40 357K
20260508T18Z_MSC_RDPS_WindDir_IsbL-0010_RLatLon0.09_PT005H.grib2 2026-05-08 20:40 363K
20260508T18Z_MSC_RDPS_WindDir_IsbL-0020_RLatLon0.09_PT005H.grib2 2026-05-08 20:40 408K
20260508T18Z_MSC_RDPS_WindDir_IsbL-0030_RLatLon0.09_PT005H.grib2 2026-05-08 20:40 399K
20260508T18Z_MSC_RDPS_WindDir_IsbL-0050_RLatLon0.09_PT005H.grib2 2026-05-08 20:40 432K
20260508T18Z_MSC_RDPS_WindDir_IsbL-0100_RLatLon0.09_PT005H.grib2 2026-05-08 20:40 399K
20260508T18Z_MSC_RDPS_WindDir_IsbL-0150_RLatLon0.09_PT005H.grib2 2026-05-08 20:40 424K
20260508T18Z_MSC_RDPS_WindDir_IsbL-0175_RLatLon0.09_PT005H.grib2 2026-05-08 20:40 448K
20260508T18Z_MSC_RDPS_WindDir_IsbL-0200_RLatLon0.09_PT005H.grib2 2026-05-08 20:40 460K
20260508T18Z_MSC_RDPS_WindDir_IsbL-0225_RLatLon0.09_PT005H.grib2 2026-05-08 20:40 464K
20260508T18Z_MSC_RDPS_WindDir_IsbL-0250_RLatLon0.09_PT005H.grib2 2026-05-08 20:40 465K
20260508T18Z_MSC_RDPS_WindDir_IsbL-0275_RLatLon0.09_PT005H.grib2 2026-05-08 20:40 483K
20260508T18Z_MSC_RDPS_WindDir_IsbL-0300_RLatLon0.09_PT005H.grib2 2026-05-08 20:40 475K
20260508T18Z_MSC_RDPS_WindDir_IsbL-0350_RLatLon0.09_PT005H.grib2 2026-05-08 20:40 497K
20260508T18Z_MSC_RDPS_WindDir_IsbL-0400_RLatLon0.09_PT005H.grib2 2026-05-08 20:40 516K
20260508T18Z_MSC_RDPS_WindDir_IsbL-0450_RLatLon0.09_PT005H.grib2 2026-05-08 20:40 536K
20260508T18Z_MSC_RDPS_WindDir_IsbL-0500_RLatLon0.09_PT005H.grib2 2026-05-08 20:40 565K
20260508T18Z_MSC_RDPS_WindDir_IsbL-0550_RLatLon0.09_PT005H.grib2 2026-05-08 20:40 574K
20260508T18Z_MSC_RDPS_WindDir_IsbL-0600_RLatLon0.09_PT005H.grib2 2026-05-08 20:40 598K
20260508T18Z_MSC_RDPS_WindDir_IsbL-0650_RLatLon0.09_PT005H.grib2 2026-05-08 20:40 635K
20260508T18Z_MSC_RDPS_WindDir_IsbL-0700_RLatLon0.09_PT005H.grib2 2026-05-08 20:40 684K
20260508T18Z_MSC_RDPS_WindDir_IsbL-0750_RLatLon0.09_PT005H.grib2 2026-05-08 20:40 735K
20260508T18Z_MSC_RDPS_WindDir_IsbL-0800_RLatLon0.09_PT005H.grib2 2026-05-08 20:40 796K
20260508T18Z_MSC_RDPS_WindDir_IsbL-0850_RLatLon0.09_PT005H.grib2 2026-05-08 20:40 851K
20260508T18Z_MSC_RDPS_WindDir_IsbL-0875_RLatLon0.09_PT005H.grib2 2026-05-08 20:40 871K
20260508T18Z_MSC_RDPS_WindDir_IsbL-0900_RLatLon0.09_PT005H.grib2 2026-05-08 20:40 886K
20260508T18Z_MSC_RDPS_WindDir_IsbL-0925_RLatLon0.09_PT005H.grib2 2026-05-08 20:40 896K
20260508T18Z_MSC_RDPS_WindDir_IsbL-0950_RLatLon0.09_PT005H.grib2 2026-05-08 20:40 899K
20260508T18Z_MSC_RDPS_WindDir_IsbL-0970_RLatLon0.09_PT005H.grib2 2026-05-08 20:40 903K
20260508T18Z_MSC_RDPS_WindDir_IsbL-0985_RLatLon0.09_PT005H.grib2 2026-05-08 20:40 910K
20260508T18Z_MSC_RDPS_WindDir_IsbL-1000_RLatLon0.09_PT005H.grib2 2026-05-08 20:40 924K
20260508T18Z_MSC_RDPS_WindDir_IsbL-1015_RLatLon0.09_PT005H.grib2 2026-05-08 20:40 940K
20260508T18Z_MSC_RDPS_WindGust-Max_AGL-10m_RLatLon0.09_PT005H.grib2 2026-05-08 20:40 1.0M
20260508T18Z_MSC_RDPS_WindGust-Min_AGL-10m_RLatLon0.09_PT005H.grib2 2026-05-08 20:40 1.0M
20260508T18Z_MSC_RDPS_WindGust_AGL-10m_RLatLon0.09_PT005H.grib2 2026-05-08 20:40 1.0M
20260508T18Z_MSC_RDPS_WindSpeed_AGL-10m_RLatLon0.09_PT005H.grib2 2026-05-08 20:40 834K
20260508T18Z_MSC_RDPS_WindSpeed_AGL-120m_RLatLon0.09_PT005H.grib2 2026-05-08 20:40 542K
20260508T18Z_MSC_RDPS_WindSpeed_AGL-40m_RLatLon0.09_PT005H.grib2 2026-05-08 20:40 537K
20260508T18Z_MSC_RDPS_WindSpeed_AGL-80m_RLatLon0.09_PT005H.grib2 2026-05-08 20:40 544K
20260508T18Z_MSC_RDPS_WindSpeed_IsbL-0001_RLatLon0.09_PT005H.grib2 2026-05-08 20:40 246K
20260508T18Z_MSC_RDPS_WindSpeed_IsbL-0005_RLatLon0.09_PT005H.grib2 2026-05-08 20:40 284K
20260508T18Z_MSC_RDPS_WindSpeed_IsbL-0010_RLatLon0.09_PT005H.grib2 2026-05-08 20:40 383K
20260508T18Z_MSC_RDPS_WindSpeed_IsbL-0020_RLatLon0.09_PT005H.grib2 2026-05-08 20:40 307K
20260508T18Z_MSC_RDPS_WindSpeed_IsbL-0030_RLatLon0.09_PT005H.grib2 2026-05-08 20:40 401K
20260508T18Z_MSC_RDPS_WindSpeed_IsbL-0050_RLatLon0.09_PT005H.grib2 2026-05-08 20:40 334K
20260508T18Z_MSC_RDPS_WindSpeed_IsbL-0100_RLatLon0.09_PT005H.grib2 2026-05-08 20:40 425K
20260508T18Z_MSC_RDPS_WindSpeed_IsbL-0150_RLatLon0.09_PT005H.grib2 2026-05-08 20:40 397K
20260508T18Z_MSC_RDPS_WindSpeed_IsbL-0175_RLatLon0.09_PT005H.grib2 2026-05-08 20:40 421K
20260508T18Z_MSC_RDPS_WindSpeed_IsbL-0200_RLatLon0.09_PT005H.grib2 2026-05-08 20:40 438K
20260508T18Z_MSC_RDPS_WindSpeed_IsbL-0225_RLatLon0.09_PT005H.grib2 2026-05-08 20:40 444K
20260508T18Z_MSC_RDPS_WindSpeed_IsbL-0250_RLatLon0.09_PT005H.grib2 2026-05-08 20:40 447K
20260508T18Z_MSC_RDPS_WindSpeed_IsbL-0275_RLatLon0.09_PT005H.grib2 2026-05-08 20:40 463K
20260508T18Z_MSC_RDPS_WindSpeed_IsbL-0300_RLatLon0.09_PT005H.grib2 2026-05-08 20:40 459K
20260508T18Z_MSC_RDPS_WindSpeed_IsbL-0350_RLatLon0.09_PT005H.grib2 2026-05-08 20:40 469K
20260508T18Z_MSC_RDPS_WindSpeed_IsbL-0400_RLatLon0.09_PT005H.grib2 2026-05-08 20:40 473K
20260508T18Z_MSC_RDPS_WindSpeed_IsbL-0450_RLatLon0.09_PT005H.grib2 2026-05-08 20:40 456K
20260508T18Z_MSC_RDPS_WindSpeed_IsbL-0500_RLatLon0.09_PT005H.grib2 2026-05-08 20:40 460K
20260508T18Z_MSC_RDPS_WindSpeed_IsbL-0550_RLatLon0.09_PT005H.grib2 2026-05-08 20:40 583K
20260508T18Z_MSC_RDPS_WindSpeed_IsbL-0600_RLatLon0.09_PT005H.grib2 2026-05-08 20:40 640K
20260508T18Z_MSC_RDPS_WindSpeed_IsbL-0650_RLatLon0.09_PT005H.grib2 2026-05-08 20:40 620K
20260508T18Z_MSC_RDPS_WindSpeed_IsbL-0700_RLatLon0.09_PT005H.grib2 2026-05-08 20:40 691K
20260508T18Z_MSC_RDPS_WindSpeed_IsbL-0750_RLatLon0.09_PT005H.grib2 2026-05-08 20:40 722K
20260508T18Z_MSC_RDPS_WindSpeed_IsbL-0800_RLatLon0.09_PT005H.grib2 2026-05-08 20:40 768K
20260508T18Z_MSC_RDPS_WindSpeed_IsbL-0850_RLatLon0.09_PT005H.grib2 2026-05-08 20:40 817K
20260508T18Z_MSC_RDPS_WindSpeed_IsbL-0875_RLatLon0.09_PT005H.grib2 2026-05-08 20:40 834K
20260508T18Z_MSC_RDPS_WindSpeed_IsbL-0900_RLatLon0.09_PT005H.grib2 2026-05-08 20:40 850K
20260508T18Z_MSC_RDPS_WindSpeed_IsbL-0925_RLatLon0.09_PT005H.grib2 2026-05-08 20:40 861K
20260508T18Z_MSC_RDPS_WindSpeed_IsbL-0950_RLatLon0.09_PT005H.grib2 2026-05-08 20:40 863K
20260508T18Z_MSC_RDPS_WindSpeed_IsbL-0970_RLatLon0.09_PT005H.grib2 2026-05-08 20:40 859K
20260508T18Z_MSC_RDPS_WindSpeed_IsbL-0985_RLatLon0.09_PT005H.grib2 2026-05-08 20:40 851K
20260508T18Z_MSC_RDPS_WindSpeed_IsbL-1000_RLatLon0.09_PT005H.grib2 2026-05-08 20:40 845K
20260508T18Z_MSC_RDPS_WindSpeed_IsbL-1015_RLatLon0.09_PT005H.grib2 2026-05-08 20:40 835K
20260508T18Z_MSC_RDPS_WindU_AGL-10m_RLatLon0.09_PT005H.grib2 2026-05-08 20:40 431K
20260508T18Z_MSC_RDPS_WindU_AGL-120m_RLatLon0.09_PT005H.grib2 2026-05-08 20:40 414K
20260508T18Z_MSC_RDPS_WindU_AGL-40m_RLatLon0.09_PT005H.grib2 2026-05-08 20:40 418K
20260508T18Z_MSC_RDPS_WindU_AGL-80m_RLatLon0.09_PT005H.grib2 2026-05-08 20:40 416K
20260508T18Z_MSC_RDPS_WindU_IsbL-0001_RLatLon0.09_PT005H.grib2 2026-05-08 20:40 238K
20260508T18Z_MSC_RDPS_WindU_IsbL-0005_RLatLon0.09_PT005H.grib2 2026-05-08 20:40 277K
20260508T18Z_MSC_RDPS_WindU_IsbL-0010_RLatLon0.09_PT005H.grib2 2026-05-08 20:40 285K
20260508T18Z_MSC_RDPS_WindU_IsbL-0020_RLatLon0.09_PT005H.grib2 2026-05-08 20:40 299K
20260508T18Z_MSC_RDPS_WindU_IsbL-0030_RLatLon0.09_PT005H.grib2 2026-05-08 20:40 299K
20260508T18Z_MSC_RDPS_WindU_IsbL-0050_RLatLon0.09_PT005H.grib2 2026-05-08 20:40 364K
20260508T18Z_MSC_RDPS_WindU_IsbL-0100_RLatLon0.09_PT005H.grib2 2026-05-08 20:40 325K
20260508T18Z_MSC_RDPS_WindU_IsbL-0150_RLatLon0.09_PT005H.grib2 2026-05-08 20:40 391K
20260508T18Z_MSC_RDPS_WindU_IsbL-0175_RLatLon0.09_PT005H.grib2 2026-05-08 20:40 415K
20260508T18Z_MSC_RDPS_WindU_IsbL-0200_RLatLon0.09_PT005H.grib2 2026-05-08 20:40 431K
20260508T18Z_MSC_RDPS_WindU_IsbL-0225_RLatLon0.09_PT005H.grib2 2026-05-08 20:40 338K
20260508T18Z_MSC_RDPS_WindU_IsbL-0250_RLatLon0.09_PT005H.grib2 2026-05-08 20:40 339K
20260508T18Z_MSC_RDPS_WindU_IsbL-0275_RLatLon0.09_PT005H.grib2 2026-05-08 20:40 351K
20260508T18Z_MSC_RDPS_WindU_IsbL-0300_RLatLon0.09_PT005H.grib2 2026-05-08 20:40 346K
20260508T18Z_MSC_RDPS_WindU_IsbL-0350_RLatLon0.09_PT005H.grib2 2026-05-08 20:40 354K
20260508T18Z_MSC_RDPS_WindU_IsbL-0400_RLatLon0.09_PT005H.grib2 2026-05-08 20:40 358K
20260508T18Z_MSC_RDPS_WindU_IsbL-0450_RLatLon0.09_PT005H.grib2 2026-05-08 20:40 462K
20260508T18Z_MSC_RDPS_WindU_IsbL-0500_RLatLon0.09_PT005H.grib2 2026-05-08 20:40 467K
20260508T18Z_MSC_RDPS_WindU_IsbL-0550_RLatLon0.09_PT005H.grib2 2026-05-08 20:40 474K
20260508T18Z_MSC_RDPS_WindU_IsbL-0600_RLatLon0.09_PT005H.grib2 2026-05-08 20:40 488K
20260508T18Z_MSC_RDPS_WindU_IsbL-0650_RLatLon0.09_PT005H.grib2 2026-05-08 20:40 491K
20260508T18Z_MSC_RDPS_WindU_IsbL-0700_RLatLon0.09_PT005H.grib2 2026-05-08 20:40 516K
20260508T18Z_MSC_RDPS_WindU_IsbL-0750_RLatLon0.09_PT005H.grib2 2026-05-08 20:40 543K
20260508T18Z_MSC_RDPS_WindU_IsbL-0800_RLatLon0.09_PT005H.grib2 2026-05-08 20:40 594K
20260508T18Z_MSC_RDPS_WindU_IsbL-0850_RLatLon0.09_PT005H.grib2 2026-05-08 20:40 634K
20260508T18Z_MSC_RDPS_WindU_IsbL-0875_RLatLon0.09_PT005H.grib2 2026-05-08 20:40 637K
20260508T18Z_MSC_RDPS_WindU_IsbL-0900_RLatLon0.09_PT005H.grib2 2026-05-08 20:40 649K
20260508T18Z_MSC_RDPS_WindU_IsbL-0925_RLatLon0.09_PT005H.grib2 2026-05-08 20:40 656K
20260508T18Z_MSC_RDPS_WindU_IsbL-0950_RLatLon0.09_PT005H.grib2 2026-05-08 20:40 657K
20260508T18Z_MSC_RDPS_WindU_IsbL-0970_RLatLon0.09_PT005H.grib2 2026-05-08 20:40 653K
20260508T18Z_MSC_RDPS_WindU_IsbL-0985_RLatLon0.09_PT005H.grib2 2026-05-08 20:40 649K
20260508T18Z_MSC_RDPS_WindU_IsbL-1000_RLatLon0.09_PT005H.grib2 2026-05-08 20:40 645K
20260508T18Z_MSC_RDPS_WindU_IsbL-1015_RLatLon0.09_PT005H.grib2 2026-05-08 20:40 776K
20260508T18Z_MSC_RDPS_WindV_AGL-10m_RLatLon0.09_PT005H.grib2 2026-05-08 20:40 429K
20260508T18Z_MSC_RDPS_WindV_AGL-120m_RLatLon0.09_PT005H.grib2 2026-05-08 20:40 527K
20260508T18Z_MSC_RDPS_WindV_AGL-40m_RLatLon0.09_PT005H.grib2 2026-05-08 20:40 531K
20260508T18Z_MSC_RDPS_WindV_AGL-80m_RLatLon0.09_PT005H.grib2 2026-05-08 20:40 528K
20260508T18Z_MSC_RDPS_WindV_IsbL-0001_RLatLon0.09_PT005H.grib2 2026-05-08 20:40 238K
20260508T18Z_MSC_RDPS_WindV_IsbL-0005_RLatLon0.09_PT005H.grib2 2026-05-08 20:40 278K
20260508T18Z_MSC_RDPS_WindV_IsbL-0010_RLatLon0.09_PT005H.grib2 2026-05-08 20:40 286K
20260508T18Z_MSC_RDPS_WindV_IsbL-0020_RLatLon0.09_PT005H.grib2 2026-05-08 20:40 300K
20260508T18Z_MSC_RDPS_WindV_IsbL-0030_RLatLon0.09_PT005H.grib2 2026-05-08 20:40 300K
20260508T18Z_MSC_RDPS_WindV_IsbL-0050_RLatLon0.09_PT005H.grib2 2026-05-08 20:40 327K
20260508T18Z_MSC_RDPS_WindV_IsbL-0100_RLatLon0.09_PT005H.grib2 2026-05-08 20:40 416K
20260508T18Z_MSC_RDPS_WindV_IsbL-0150_RLatLon0.09_PT005H.grib2 2026-05-08 20:40 389K
20260508T18Z_MSC_RDPS_WindV_IsbL-0175_RLatLon0.09_PT005H.grib2 2026-05-08 20:40 412K
20260508T18Z_MSC_RDPS_WindV_IsbL-0200_RLatLon0.09_PT005H.grib2 2026-05-08 20:40 333K
20260508T18Z_MSC_RDPS_WindV_IsbL-0225_RLatLon0.09_PT005H.grib2 2026-05-08 20:40 337K
20260508T18Z_MSC_RDPS_WindV_IsbL-0250_RLatLon0.09_PT005H.grib2 2026-05-08 20:40 363K
20260508T18Z_MSC_RDPS_WindV_IsbL-0275_RLatLon0.09_PT005H.grib2 2026-05-08 20:40 374K
20260508T18Z_MSC_RDPS_WindV_IsbL-0300_RLatLon0.09_PT005H.grib2 2026-05-08 20:40 345K
20260508T18Z_MSC_RDPS_WindV_IsbL-0350_RLatLon0.09_PT005H.grib2 2026-05-08 20:40 353K
20260508T18Z_MSC_RDPS_WindV_IsbL-0400_RLatLon0.09_PT005H.grib2 2026-05-08 20:40 355K
20260508T18Z_MSC_RDPS_WindV_IsbL-0450_RLatLon0.09_PT005H.grib2 2026-05-08 20:40 357K
20260508T18Z_MSC_RDPS_WindV_IsbL-0500_RLatLon0.09_PT005H.grib2 2026-05-08 20:40 463K
20260508T18Z_MSC_RDPS_WindV_IsbL-0550_RLatLon0.09_PT005H.grib2 2026-05-08 20:40 468K
20260508T18Z_MSC_RDPS_WindV_IsbL-0600_RLatLon0.09_PT005H.grib2 2026-05-08 20:40 481K
20260508T18Z_MSC_RDPS_WindV_IsbL-0650_RLatLon0.09_PT005H.grib2 2026-05-08 20:40 500K
20260508T18Z_MSC_RDPS_WindV_IsbL-0700_RLatLon0.09_PT005H.grib2 2026-05-08 20:40 523K
20260508T18Z_MSC_RDPS_WindV_IsbL-0750_RLatLon0.09_PT005H.grib2 2026-05-08 20:40 536K
20260508T18Z_MSC_RDPS_WindV_IsbL-0800_RLatLon0.09_PT005H.grib2 2026-05-08 20:40 576K
20260508T18Z_MSC_RDPS_WindV_IsbL-0850_RLatLon0.09_PT005H.grib2 2026-05-08 20:40 618K
20260508T18Z_MSC_RDPS_WindV_IsbL-0875_RLatLon0.09_PT005H.grib2 2026-05-08 20:40 634K
20260508T18Z_MSC_RDPS_WindV_IsbL-0900_RLatLon0.09_PT005H.grib2 2026-05-08 20:40 647K
20260508T18Z_MSC_RDPS_WindV_IsbL-0925_RLatLon0.09_PT005H.grib2 2026-05-08 20:40 655K
20260508T18Z_MSC_RDPS_WindV_IsbL-0950_RLatLon0.09_PT005H.grib2 2026-05-08 20:40 654K
20260508T18Z_MSC_RDPS_WindV_IsbL-0970_RLatLon0.09_PT005H.grib2 2026-05-08 20:40 791K
20260508T18Z_MSC_RDPS_WindV_IsbL-0985_RLatLon0.09_PT005H.grib2 2026-05-08 20:40 784K
20260508T18Z_MSC_RDPS_WindV_IsbL-1000_RLatLon0.09_PT005H.grib2 2026-05-08 20:40 779K
20260508T18Z_MSC_RDPS_WindV_IsbL-1015_RLatLon0.09_PT005H.grib2 2026-05-08 20:40 819K